Time;durP1;ratioP1;P1;durP2;ratioP2;P2;SDS_P1;SDS_P2;PMS_P1;PMS_P2;Temp;Humidity;BMP_temperature;BMP_pressure;BME280_temperature;BME280_humidity;BME280_pressure;Samples;Min_cycle;Max_cycle;Signal;HPM_P1;HPM_P2
2023/07/08 00:03:33;;;;;;;6.30;5.20;;;;;;;15.84;49.75;101525.02;104758;1293;61325;-88
2023/07/08 00:06:57;;;;;;;4.80;4.30;;;;;;;15.86;49.75;101523.23;105730;1284;59361;-88
2023/07/08 00:16:21;;;;;;;6.90;4.80;;;;;;;15.89;49.96;101524.20;100940;1292;71162;-88
2023/07/08 00:20:07;;;;;;;5.40;4.90;;;;;;;15.90;49.96;101522.45;105244;1288;61034;-88
2023/07/08 00:23:55;;;;;;;4.50;3.90;;;;;;;15.88;49.97;101522.84;104714;1296;59383;-88
2023/07/08 00:30:41;;;;;;;5.80;4.60;;;;;;;15.79;50.09;101523.92;105548;1286;66543;-88
2023/07/08 00:47:29;;;;;;;4.70;4.30;;;;;;;15.57;50.61;101520.79;105758;1285;72619;-87
2023/07/08 00:51:16;;;;;;;4.30;3.90;;;;;;;15.55;50.71;101516.13;105605;1288;61103;-88
2023/07/08 00:55:02;;;;;;;5.30;4.10;;;;;;;15.50;50.74;101520.58;105624;1287;59878;-88
2023/07/08 00:58:55;;;;;;;6.30;4.30;;;;;;;15.40;50.87;101517.84;104902;1294;73725;-88
2023/07/08 01:02:42;;;;;;;5.60;4.20;;;;;;;15.35;50.99;101512.55;104959;1291;68935;-87
2023/07/08 01:06:31;;;;;;;5.40;4.70;;;;;;;15.36;51.20;101514.98;104936;1291;71192;-87
2023/07/08 01:10:17;;;;;;;5.00;4.50;;;;;;;15.38;51.22;101514.06;104998;1291;59432;-90
2023/07/08 01:14:03;;;;;;;9.70;4.50;;;;;;;15.35;51.18;101514.64;104976;1292;61270;-90
2023/07/08 01:17:56;;;;;;;5.70;4.40;;;;;;;15.30;51.30;101509.02;104936;1291;74015;-90
2023/07/08 01:24:27;;;;;;;4.40;4.00;;;;;;;15.14;51.47;101494.41;105418;1286;72472;-87
2023/07/08 01:31:25;;;;;;;4.40;4.00;;;;;;;15.03;51.64;101492.23;105453;1286;61198;-87
2023/07/08 01:35:11;;;;;;;4.30;4.00;;;;;;;15.04;51.74;101488.40;105367;1286;74590;-90
2023/07/08 01:38:58;;;;;;;5.20;4.30;;;;;;;14.99;51.83;101492.33;105370;1287;67464;-90
2023/07/08 01:42:44;;;;;;;4.50;4.00;;;;;;;14.96;51.89;101491.16;105285;1286;71176;-90
2023/07/08 01:57:52;;;;;;;4.60;4.00;;;;;;;14.90;52.15;101483.81;105664;1286;70987;-89
2023/07/08 02:04:03;;;;;;;4.80;4.20;;;;;;;14.86;52.32;101477.30;105549;1283;61191;-89
2023/07/08 02:07:50;;;;;;;5.10;4.60;;;;;;;14.81;52.43;101479.48;105415;1287;73450;-90
2023/07/08 02:11:36;;;;;;;5.10;4.40;;;;;;;14.79;52.44;101481.95;105391;1286;68563;-90
2023/07/08 02:15:23;;;;;;;4.70;4.30;;;;;;;14.74;52.50;101479.63;105182;1286;357301;-90
2023/07/08 02:24:38;;;;;;;5.10;4.60;;;;;;;14.54;52.85;101486.44;105626;1283;73761;-89
2023/07/08 02:28:37;;;;;;;5.50;3.90;;;;;;;14.56;52.80;101490.89;105340;1286;68149;-89
2023/07/08 02:32:23;;;;;;;8.30;4.40;;;;;;;14.53;52.83;101490.10;104976;1290;71272;-88
2023/07/08 02:36:10;;;;;;;5.10;4.60;;;;;;;14.47;52.88;101488.31;105038;1289;61150;-88
2023/07/08 02:39:37;;;;;;;5.70;4.20;;;;;;;14.45;53.03;101487.98;105054;1290;61248;-88
2023/07/08 02:45:05;;;;;;;8.30;5.20;;;;;;;14.42;53.17;101497.94;105650;1285;67423;-87
2023/07/08 02:48:36;;;;;;;6.20;4.20;;;;;;;14.40;53.14;101500.20;105454;1285;71274;-87
2023/07/08 02:52:23;;;;;;;6.90;4.60;;;;;;;14.25;53.33;101498.38;105627;1285;62065;-88
2023/07/08 02:56:09;;;;;;;4.80;4.10;;;;;;;14.11;53.51;101497.03;105530;1289;61169;-87
2023/07/08 02:59:55;;;;;;;6.10;4.50;;;;;;;14.11;53.70;101491.32;105536;1285;73364;-87
2023/07/08 03:03:41;;;;;;;5.10;4.70;;;;;;;14.18;53.71;101490.86;105513;1288;67501;-87
2023/07/08 03:06:50;;;;;;;5.10;4.50;;;;;;;14.16;53.73;101492.62;105256;1289;71133;-85
2023/07/08 03:09:56;;;;;;;5.00;4.50;;;;;;;14.19;53.78;101491.70;105166;1289;61197;-88
2023/07/08 03:13:23;;;;;;;4.80;4.40;;;;;;;14.19;53.84;101491.53;105228;1293;61182;-87
2023/07/08 03:17:09;;;;;;;4.50;4.10;;;;;;;14.23;53.84;101492.16;105322;1288;75132;-88
2023/07/08 03:20:55;;;;;;;4.90;4.40;;;;;;;14.23;53.97;101494.77;105346;1288;67322;-87
2023/07/08 03:26:46;;;;;;;4.40;4.00;;;;;;;14.27;53.99;101494.70;105338;1283;61176;-87
2023/07/08 03:29:54;;;;;;;5.90;3.90;;;;;;;14.31;54.06;101489.95;105495;1289;59924;-87
2023/07/08 03:33:08;;;;;;;5.00;4.50;;;;;;;14.30;54.06;101491.36;105171;1289;74826;-87
2023/07/08 03:36:35;;;;;;;4.80;4.30;;;;;;;14.22;54.29;101489.58;105300;1289;68721;-88
2023/07/08 03:40:01;;;;;;;5.10;4.40;;;;;;;14.25;54.40;101491.26;105275;1290;71302;-88
2023/07/08 03:43:28;;;;;;;6.20;4.30;;;;;;;14.30;54.56;101489.43;105185;1289;61378;-88
2023/07/08 03:47:14;;;;;;;4.80;4.30;;;;;;;14.35;54.53;101491.08;105207;1289;61226;-88
2023/07/08 03:51:00;;;;;;;6.00;5.00;;;;;;;14.39;54.45;101483.55;105173;1288;73289;-88
2023/07/08 03:54:46;;;;;;;4.90;4.50;;;;;;;14.46;54.67;101488.31;105170;1289;67398;-88
2023/07/08 03:58:32;;;;;;;4.80;4.30;;;;;;;14.49;54.69;101487.23;105182;1289;70864;-88
2023/07/08 04:02:19;;;;;;;6.70;5.10;;;;;;;14.47;54.88;101488.82;105116;1289;59532;-88
2023/07/08 04:06:05;;;;;;;6.00;4.90;;;;;;;14.54;54.97;101490.77;105132;1289;61781;-88
2023/07/08 04:09:51;;;;;;;6.30;5.00;;;;;;;14.69;55.06;101493.25;105156;1288;74354;-88
2023/07/08 04:13:19;;;;;;;5.20;4.80;;;;;;;14.79;55.22;101487.50;104994;1290;68364;-88
2023/07/08 04:19:46;;;;;;;7.20;5.00;;;;;;;15.13;55.29;101476.53;105492;1285;59341;-89
2023/07/08 04:23:32;;;;;;;13.80;4.90;;;;;;;15.24;55.46;101478.23;105325;1287;61345;-88
2023/07/08 04:27:18;;;;;;;6.60;5.50;;;;;;;15.30;55.62;101480.52;105358;1287;76089;-88
2023/07/08 04:31:01;;;;;;;6.90;5.40;;;;;;;15.41;55.76;101479.05;105404;1287;70022;-88
2023/07/08 04:33:48;;;;;;;6.80;4.90;;;;;;;15.55;55.83;101473.55;105293;1287;71315;-86
2023/07/08 04:36:34;;;;;;;9.90;5.00;;;;;;;15.69;55.78;101467.66;105124;1286;61259;-85
2023/07/08 04:39:20;;;;;;;7.30;5.50;;;;;;;15.81;55.84;101471.89;105223;1286;59971;-85
2023/07/08 04:42:07;;;;;;;8.80;5.40;;;;;;;15.88;56.10;101472.25;105096;1288;76067;-85
2023/07/08 04:44:53;;;;;;;15.00;6.40;;;;;;;15.93;56.35;101470.40;105233;1286;67252;-85
2023/07/08 04:47:39;;;;;;;;;;;;;;;15.98;56.42;101465.05;105216;1286;71992;-86
2023/07/08 04:50:25;;;;;;;7.30;5.70;;;;;;;16.10;56.53;101469.44;105261;1288;61151;-86
2023/07/08 04:53:12;;;;;;;8.80;6.90;;;;;;;16.24;56.53;101464.19;105273;1289;61370;-85
2023/07/08 04:55:59;;;;;;;8.40;6.20;;;;;;;16.37;56.61;101461.58;105181;1287;73245;-85
2023/07/08 04:58:45;;;;;;;;;;;;;;;16.55;56.45;101460.95;105120;1289;67190;-86
2023/07/08 05:01:31;;;;;;;14.60;7.90;;;;;;;16.74;56.54;101466.85;105134;1287;72277;-86
2023/07/08 05:04:20;;;;;;;12.00;7.40;;;;;;;16.96;56.45;101465.88;105090;1288;61311;-85
2023/07/08 05:07:06;;;;;;;15.20;9.20;;;;;;;17.21;56.73;101461.11;104937;1287;61175;-86
2023/07/08 05:09:52;;;;;;;12.70;8.10;;;;;;;17.55;56.72;101460.06;105184;1287;76073;-86
2023/07/08 05:12:38;;;;;;;15.10;8.70;;;;;;;18.10;56.83;101458.25;104867;1287;66710;-86
2023/07/08 05:15:25;;;;;;;15.00;8.70;;;;;;;18.79;56.53;101454.27;105078;1287;71157;-86
2023/07/08 05:18:11;;;;;;;13.50;8.10;;;;;;;19.53;56.21;101452.45;105162;1287;61192;-86
2023/07/08 05:20:57;;;;;;;;;;;;;;;20.26;55.89;101449.60;105026;1287;61192;-86
2023/07/08 05:23:44;;;;;;;14.00;8.20;;;;;;;20.97;55.58;101454.65;105127;1289;73363;-87
2023/07/08 05:26:30;;;;;;;16.80;8.30;;;;;;;21.69;55.24;101451.22;105122;1288;71071;-86
2023/07/08 05:29:18;;;;;;;12.80;7.50;;;;;;;22.40;55.01;101451.14;104960;1293;74088;-86
2023/07/08 05:32:05;;;;;;;13.40;7.30;;;;;;;23.07;54.62;101453.35;105134;1286;61377;-87
2023/07/08 05:34:52;;;;;;;13.10;7.20;;;;;;;23.76;54.37;101454.55;105034;1287;61102;-86
2023/07/08 05:37:39;;;;;;;10.50;6.40;;;;;;;24.42;54.13;101458.19;105114;1287;74367;-87
2023/07/08 05:40:26;;;;;;;6.90;5.80;;;;;;;25.10;53.87;101458.93;105129;1288;67314;-86
2023/07/08 05:43:20;;;;;;;8.40;5.30;;;;;;;25.68;53.48;101462.02;105140;1287;71171;-85
2023/07/08 05:46:06;;;;;;;5.40;4.50;;;;;;;26.13;53.39;101463.61;106203;1292;58927;-84
2023/07/08 05:48:52;;;;;;;7.40;4.10;;;;;;;26.43;52.70;101462.61;105596;1287;61349;-84
2023/07/08 05:51:38;;;;;;;4.30;3.90;;;;;;;26.74;52.31;101462.55;105092;1287;73265;-84
2023/07/08 05:54:24;;;;;;;7.80;3.90;;;;;;;27.10;52.14;101457.70;105014;1287;68615;-84
2023/07/08 05:57:11;;;;;;;12.60;5.10;;;;;;;27.54;51.83;101455.73;104971;1292;73226;-84
2023/07/08 05:59:57;;;;;;;6.00;3.60;;;;;;;27.96;51.60;101455.53;105001;1288;61186;-84
2023/07/08 06:02:43;;;;;;;7.30;3.50;;;;;;;28.27;51.09;101452.45;105084;1287;61298;-84
2023/07/08 06:05:29;;;;;;;7.80;3.70;;;;;;;28.57;50.99;101451.41;105123;1291;73085;-84
2023/07/08 06:08:16;;;;;;;7.60;3.30;;;;;;;28.89;50.47;101449.34;105112;1287;68548;-85
2023/07/08 06:11:02;;;;;;;;;;;;;;;29.28;50.13;101449.72;105044;1288;72554;-84
2023/07/08 06:13:48;;;;;;;4.70;3.10;;;;;;;29.59;49.90;101449.19;105075;1286;59296;-84
2023/07/08 06:16:35;;;;;;;8.00;3.10;;;;;;;29.92;49.40;101450.44;105054;1287;61106;-84
2023/07/08 06:19:21;;;;;;;;;;;;;;;30.15;48.66;101454.23;105152;1287;73197;-85
2023/07/08 06:22:07;;;;;;;3.70;3.00;;;;;;;30.30;48.36;101451.33;105071;1292;69540;-85
2023/07/08 06:24:53;;;;;;;4.10;2.70;;;;;;;30.48;48.03;101454.36;105187;1287;72253;-85
2023/07/08 06:27:39;;;;;;;6.60;2.60;;;;;;;30.81;47.49;101457.02;105158;1287;61637;-85
2023/07/08 06:30:26;;;;;;;10.00;2.90;;;;;;;31.30;47.16;101458.33;105191;1288;61367;-85
2023/07/08 06:33:12;;;;;;;4.00;2.90;;;;;;;31.90;46.38;101456.92;105181;1291;73356;-85
2023/07/08 06:35:58;;;;;;;3.20;2.80;;;;;;;32.46;45.74;101457.71;105106;1292;68640;-85
2023/07/08 06:38:42;;;;;;;7.50;2.40;;;;;;;32.97;45.14;101453.61;105148;1287;73670;-84
2023/07/08 06:41:26;;;;;;;9.30;2.60;;;;;;;33.45;44.53;101453.16;105195;1287;61294;-84
2023/07/08 06:44:11;;;;;;;5.20;3.00;;;;;;;34.12;44.08;101454.84;105084;1287;63998;-84
2023/07/08 06:46:55;;;;;;;2.30;2.10;;;;;;;34.78;43.61;101454.81;105079;1292;76015;-85
2023/07/08 06:49:39;;;;;;;9.80;2.90;;;;;;;35.55;43.18;101457.91;105197;1287;67420;-85
2023/07/08 06:52:23;;;;;;;8.40;2.50;;;;;;;36.09;42.55;101452.86;105078;1287;72182;-84
2023/07/08 06:55:09;;;;;;;4.70;2.40;;;;;;;36.47;42.04;101451.36;105191;1287;63705;-84
2023/07/08 06:57:54;;;;;;;2.50;2.30;;;;;;;36.61;41.84;101451.98;105100;1287;61162;-84
2023/07/08 07:00:42;;;;;;;4.10;2.20;;;;;;;36.80;41.26;101451.46;105037;1292;74129;-84
2023/07/08 07:03:27;;;;;;;3.90;2.40;;;;;;;37.04;40.64;101450.29;105082;1287;275280;-84
2023/07/08 07:06:11;;;;;;;2.70;2.30;;;;;;;37.53;39.74;101448.09;105440;1287;72928;-84
2023/07/08 07:08:55;;;;;;;4.00;2.10;;;;;;;38.24;38.75;101446.38;105288;1290;61122;-84
2023/07/08 07:11:39;;;;;;;3.80;2.30;;;;;;;39.02;37.60;101444.60;105321;1287;61996;-85
2023/07/08 07:14:23;;;;;;;5.70;2.70;;;;;;;39.45;36.84;101445.06;105372;1289;73195;-85
2023/07/08 07:17:07;;;;;;;3.80;1.90;;;;;;;40.04;36.23;101444.89;105501;1287;67232;-85
2023/07/08 07:19:51;;;;;;;3.00;2.50;;;;;;;40.74;35.50;101447.73;105276;1287;71257;-85
2023/07/08 07:22:35;;;;;;;3.80;2.20;;;;;;;41.52;34.70;101443.16;105463;1287;59303;-85
2023/07/08 07:25:21;;;;;;;5.40;2.40;;;;;;;42.11;34.03;101440.30;105258;1289;61607;-87
2023/07/08 07:28:06;;;;;;;5.50;2.50;;;;;;;41.96;33.61;101445.14;105397;1287;74908;-87
2023/07/08 07:30:59;;;;;;;3.00;2.70;;;;;;;41.56;33.42;101446.10;105363;1287;68389;-87
2023/07/08 07:33:53;;;;;;;5.60;2.40;;;;;;;40.90;33.01;101445.56;106092;1289;72322;-87
2023/07/08 07:36:38;;;;;;;2.60;2.40;;;;;;;40.17;32.60;101442.90;105833;1290;59484;-86
2023/07/08 07:39:23;;;;;;;5.50;2.60;;;;;;;40.57;31.68;101447.80;106324;1287;58971;-87
2023/07/08 07:42:09;;;;;;;4.60;2.80;;;;;;;39.91;31.00;101446.05;106229;1289;73464;-87
2023/07/08 07:44:55;;;;;;;8.80;3.20;;;;;;;39.46;31.02;101450.03;105524;1287;67402;-86
2023/07/08 07:47:42;;;;;;;2.40;2.20;;;;;;;39.18;30.70;101450.20;105161;1287;71301;-87
2023/07/08 07:50:51;;;;;;;4.50;2.40;;;;;;;40.04;29.92;101446.79;105222;1287;61280;-87
2023/07/08 07:53:38;;;;;;;2.50;2.30;;;;;;;41.62;28.59;101449.48;106149;1287;59168;-87
2023/07/08 07:56:25;;;;;;;3.00;2.60;;;;;;;42.83;27.99;101449.27;106186;1287;73328;-85
2023/07/08 07:59:11;;;;;;;3.40;2.50;;;;;;;43.77;27.55;101450.06;105990;1287;67425;-85
2023/07/08 08:01:58;;;;;;;5.00;3.10;;;;;;;44.97;26.89;101453.52;105222;1288;71226;-85
2023/07/08 08:04:43;;;;;;;7.20;2.70;;;;;;;45.78;26.20;101454.08;105228;1287;59028;-84
2023/07/08 08:07:27;;;;;;;4.70;3.50;;;;;;;46.45;25.97;101455.54;105364;1287;59446;-83
2023/07/08 08:10:11;;;;;;;3.50;3.10;;;;;;;47.31;25.77;101458.24;105415;1287;64767;-83
2023/07/08 08:12:56;;;;;;;3.70;3.50;;;;;;;48.03;25.10;101455.52;105472;1287;61438;-84
2023/07/08 08:15:40;;;;;;;4.00;3.70;;;;;;;48.75;24.55;101456.65;105410;1287;62743;-83
2023/07/08 08:18:24;;;;;;;4.30;4.00;;;;;;;49.61;24.16;101461.17;105421;1287;59243;-83
2023/07/08 08:21:09;;;;;;;8.70;4.70;;;;;;;50.44;23.48;101457.04;105469;1287;60428;-83
2023/07/08 08:23:53;;;;;;;5.50;5.00;;;;;;;50.76;22.81;101456.01;105339;1289;65702;-83
2023/07/08 08:26:37;;;;;;;6.80;6.20;;;;;;;50.81;22.09;101454.70;105389;1287;59630;-84
2023/07/08 08:29:21;;;;;;;6.20;5.80;;;;;;;50.85;21.44;101451.23;105352;1287;63922;-83
2023/07/08 08:32:06;;;;;;;8.50;8.00;;;;;;;50.93;20.59;101450.38;105420;1287;61129;-83
2023/07/08 08:34:50;;;;;;;6.10;5.70;;;;;;;51.04;20.54;101451.15;105364;1287;59286;-84
2023/07/08 08:37:34;;;;;;;9.60;7.10;;;;;;;51.77;20.10;101454.20;105365;1287;65067;-84
2023/07/08 08:40:18;;;;;;;6.80;6.50;;;;;;;52.49;19.21;101453.23;105371;1287;61154;-84
2023/07/08 08:43:09;;;;;;;8.30;7.70;;;;;;;52.13;18.07;101452.38;105381;1287;62568;-84
2023/07/08 08:46:46;;;;;;;7.90;7.50;;;;;;;51.93;18.05;101452.32;105363;1292;59332;-84
2023/07/08 08:49:37;;;;;;;7.80;7.40;;;;;;;52.38;17.85;101448.83;104722;1297;61199;-84
2023/07/08 08:52:22;;;;;;;8.80;8.20;;;;;;;52.94;17.08;101448.45;104652;1297;67445;-84
2023/07/08 08:55:13;;;;;;;8.80;8.30;;;;;;;52.83;16.66;101448.90;104681;1297;61309;-84
2023/07/08 08:58:31;;;;;;;8.60;8.00;;;;;;;53.13;16.34;101448.17;104997;1297;62700;-84
2023/07/08 09:01:17;;;;;;;8.20;7.60;;;;;;;53.11;15.99;101452.58;104584;1297;59552;-83
2023/07/08 09:04:52;;;;;;;7.90;7.40;;;;;;;52.03;15.30;101444.84;104535;1297;61319;-86
2023/07/08 09:08:53;;;;;;;5.30;4.80;;;;;;;48.29;15.43;101434.08;104320;1304;64835;-90
2023/07/08 09:12:34;;;;;;;4.40;3.60;;;;;;;44.54;15.39;101433.59;103427;1311;67457;-89
2023/07/08 09:16:23;;;;;;;3.80;2.60;;;;;;;42.12;15.59;101425.30;103310;1312;71328;-89
2023/07/08 09:20:22;;;;;;;2.40;2.30;;;;;;;39.80;15.60;101418.27;102485;1317;61203;-89
2023/07/08 09:24:08;;;;;;;2.30;2.10;;;;;;;37.49;15.65;101415.80;102367;1322;60053;-88
2023/07/08 09:27:34;;;;;;;3.70;1.80;;;;;;;36.12;15.90;101410.13;103683;1317;73585;-89
2023/07/08 09:31:03;;;;;;;2.20;2.00;;;;;;;35.22;16.30;101404.23;102860;1314;67250;-90
2023/07/08 09:34:41;;;;;;;2.00;1.50;;;;;;;34.27;16.38;101398.38;102808;1314;72976;-90
2023/07/08 09:38:27;;;;;;;2.40;1.90;;;;;;;33.59;16.95;101404.34;102903;1313;61141;-88
2023/07/08 09:42:13;;;;;;;1.90;1.70;;;;;;;33.01;17.17;101406.59;102928;1314;60259;-88
2023/07/08 09:46:00;;;;;;;2.80;2.00;;;;;;;32.48;17.44;101405.53;103470;1308;74749;-89
2023/07/08 09:48:46;;;;;;;1.90;1.80;;;;;;;31.95;17.91;101398.79;103702;1305;68195;-86
2023/07/08 09:51:33;;;;;;;2.30;1.90;;;;;;;31.63;17.97;101392.95;103715;1304;71307;-86
2023/07/08 09:54:24;;;;;;;3.60;2.00;;;;;;;31.25;18.13;101397.11;103778;1304;61250;-88
2023/07/08 09:57:29;;;;;;;1.90;1.80;;;;;;;30.98;18.43;101399.90;104367;1295;59935;-88
2023/07/08 10:00:18;;;;;;;2.20;2.00;;;;;;;30.76;18.61;101388.54;104941;1287;73227;-88
2023/07/08 10:03:16;;;;;;;7.00;2.40;;;;;;;30.58;18.96;101387.29;104995;1287;68879;-88
2023/07/08 10:06:14;;;;;;;4.20;1.90;;;;;;;30.34;19.03;101385.34;105128;1287;72085;-89
2023/07/08 10:09:22;;;;;;;2.20;1.90;;;;;;;30.09;19.42;101387.12;105181;1292;59503;-89
2023/07/08 10:13:11;;;;;;;6.70;2.30;;;;;;;29.88;19.68;101386.39;105328;1287;61274;-89
2023/07/08 10:16:34;;;;;;;2.00;1.90;;;;;;;29.72;19.83;101389.09;105303;1287;73401;-89
2023/07/08 10:20:04;;;;;;;3.40;2.20;;;;;;;29.61;20.00;101389.09;105431;1287;67361;-87
2023/07/08 10:24:09;;;;;;;2.40;2.00;;;;;;;29.53;20.34;101385.71;105186;1287;72264;-87
2023/07/08 10:27:33;;;;;;;3.70;1.90;;;;;;;29.41;20.61;101384.61;104873;1294;61282;-87
2023/07/08 10:31:19;;;;;;;4.70;2.10;;;;;;;29.34;20.78;101384.38;104729;1294;85120;-87
2023/07/08 10:35:04;;;;;;;4.00;1.70;;;;;;;29.29;21.13;101379.45;104330;1301;73371;-89
2023/07/08 10:38:19;;;;;;;2.30;2.10;;;;;;;29.32;21.35;101378.35;103868;1310;67245;-89
2023/07/08 10:41:55;;;;;;;2.10;1.90;;;;;;;29.32;21.39;101376.55;103482;1311;71715;-87
2023/07/08 10:45:03;;;;;;;2.20;2.00;;;;;;;29.24;21.52;101372.98;103181;1312;61438;-87
2023/07/08 10:48:57;;;;;;;3.00;1.80;;;;;;;29.23;21.66;101369.89;102919;1317;60647;-87
2023/07/08 10:52:38;;;;;;;3.20;1.70;;;;;;;29.13;22.05;101368.05;102510;1323;73618;-87
2023/07/08 10:56:27;;;;;;;8.40;1.90;;;;;;;29.10;22.31;101363.53;102516;1320;67407;-86
2023/07/08 11:00:31;;;;;;;3.50;1.90;;;;;;;29.08;22.48;101355.36;102490;1320;71409;-86
2023/07/08 11:04:09;;;;;;;3.40;1.90;;;;;;;29.01;22.50;101355.07;102129;1326;61260;-86
2023/07/08 11:08:06;;;;;;;7.70;2.20;;;;;;;28.95;22.87;101354.81;101872;1330;61528;-86
2023/07/08 11:11:55;;;;;;;3.00;2.20;;;;;;;28.88;23.02;101350.77;102033;1323;72688;-86
2023/07/08 11:15:25;;;;;;;2.30;1.70;;;;;;;28.85;23.16;101343.53;102290;1324;68988;-88
2023/07/08 11:19:16;;;;;;;4.10;1.90;;;;;;;28.88;23.34;101348.10;102286;1321;73992;-88
2023/07/08 11:22:27;;;;;;;2.10;2.00;;;;;;;28.89;23.47;101342.56;102430;1320;61155;-88
2023/07/08 11:25:58;;;;;;;2.80;2.20;;;;;;;28.86;23.77;101335.98;102483;1319;60341;-89
2023/07/08 11:29:44;;;;;;;2.60;2.40;;;;;;;28.89;23.90;101338.95;103242;1311;74670;-88
2023/07/08 11:32:55;;;;;;;2.30;1.80;;;;;;;28.87;23.91;101339.15;102944;1320;68629;-88
2023/07/08 11:36:43;;;;;;;5.90;4.00;;;;;;;28.86;24.10;101338.89;102917;1318;72995;-89
2023/07/08 11:40:35;;;;;;;8.00;2.20;;;;;;;28.89;24.46;101340.27;103495;1305;61733;-89
2023/07/08 11:44:24;;;;;;;4.70;1.90;;;;;;;28.87;24.35;101335.55;103929;1301;63129;-88
2023/07/08 11:48:25;;;;;;;3.00;2.10;;;;;;;28.86;24.37;101333.54;104128;1301;76099;-88
2023/07/08 11:51:52;;;;;;;2.40;2.10;;;;;;;28.89;24.56;101328.27;104345;1296;67570;-88
2023/07/08 11:55:21;;;;;;;5.20;2.20;;;;;;;28.90;24.79;101321.14;104777;1296;72577;-88
2023/07/08 11:58:29;;;;;;;3.80;2.20;;;;;;;28.84;24.78;101321.30;105015;1298;59784;-86
2023/07/08 12:01:36;;;;;;;3.70;2.40;;;;;;;28.82;24.91;101323.77;104567;1296;61221;-86
2023/07/08 12:04:35;;;;;;;2.70;2.20;;;;;;;28.84;25.01;101318.97;104732;1295;74618;-86
2023/07/08 12:07:46;;;;;;;2.80;2.50;;;;;;;28.85;25.18;101321.00;105061;1295;67867;-86
2023/07/08 12:10:53;;;;;;;4.40;2.10;;;;;;;28.91;25.25;101316.83;105361;1287;72605;-86
2023/07/08 12:13:42;;;;;;;2.20;2.00;;;;;;;28.95;25.35;101310.23;104832;1291;61212;-85
2023/07/08 12:16:32;;;;;;;3.40;2.00;;;;;;;28.94;25.35;101307.84;104833;1291;61357;-85
2023/07/08 12:19:22;;;;;;;1.90;1.80;;;;;;;28.94;25.48;101308.20;104973;1292;73727;-86
2023/07/08 12:22:27;;;;;;;3.60;2.20;;;;;;;28.91;25.40;101303.85;105033;1291;68107;-86
2023/07/08 12:25:23;;;;;;;2.40;1.90;;;;;;;28.89;25.49;101303.83;105114;1294;71592;-86
2023/07/08 12:28:31;;;;;;;3.30;1.70;;;;;;;28.87;25.60;101305.80;104888;1291;59116;-86
2023/07/08 12:31:39;;;;;;;2.20;2.00;;;;;;;28.87;25.84;101300.79;104931;1291;61069;-86
2023/07/08 12:34:29;;;;;;;3.20;2.40;;;;;;;28.86;25.77;101299.46;104874;1291;73292;-85
2023/07/08 12:37:17;;;;;;;2.50;2.30;;;;;;;28.84;25.79;101298.72;104869;1291;68775;-85
2023/07/08 12:40:13;;;;;;;5.00;4.50;;;;;;;28.84;25.91;101296.91;104690;1291;71200;-86
2023/07/08 12:43:00;;;;;;;4.50;2.10;;;;;;;28.82;25.85;101297.62;104894;1291;59905;-85
2023/07/08 12:46:04;;;;;;;3.00;2.80;;;;;;;28.79;26.12;101299.30;105028;1291;59390;-88
2023/07/08 12:48:53;;;;;;;4.40;2.30;;;;;;;28.80;26.15;101291.94;105528;1291;73187;-88
2023/07/08 12:52:01;;;;;;;3.10;2.80;;;;;;;28.83;26.28;101288.16;105243;1287;67291;-89
2023/07/08 12:54:55;;;;;;;5.30;2.20;;;;;;;28.84;26.19;101286.64;105259;1287;71394;-86
2023/07/08 12:57:54;;;;;;;3.00;2.10;;;;;;;28.83;26.24;101286.17;105264;1287;59335;-86
2023/07/08 13:00:44;;;;;;;3.70;2.20;;;;;;;28.85;26.44;101287.84;106170;1287;59571;-86
2023/07/08 13:03:50;;;;;;;2.60;2.40;;;;;;;28.88;26.48;101285.83;106230;1287;73361;-86
2023/07/08 13:06:42;;;;;;;16.50;3.30;;;;;;;28.88;26.49;101281.17;106208;1287;67439;-87
2023/07/08 13:09:44;;;;;;;3.50;2.40;;;;;;;28.87;26.48;101271.53;106118;1287;71084;-86
2023/07/08 13:12:38;;;;;;;1.90;1.80;;;;;;;28.84;26.49;101272.82;105526;1287;59766;-86
2023/07/08 13:16:15;;;;;;;2.00;1.70;;;;;;;28.83;26.61;101265.63;105185;1287;61342;-87
2023/07/08 13:19:04;;;;;;;5.00;2.30;;;;;;;28.83;26.56;101264.17;106291;1287;74270;-87
2023/07/08 13:22:07;;;;;;;5.00;2.30;;;;;;;28.84;26.61;101259.33;105165;1287;68971;-86
2023/07/08 13:25:20;;;;;;;3.10;2.30;;;;;;;28.86;26.68;101262.18;106284;1287;71147;-87
2023/07/08 13:28:29;;;;;;;2.00;1.80;;;;;;;28.87;26.60;101260.54;106288;1287;59005;-87
2023/07/08 13:31:21;;;;;;;4.00;2.00;;;;;;;28.84;26.69;101263.37;106163;1287;58982;-86
2023/07/08 13:34:15;;;;;;;2.30;2.10;;;;;;;28.83;26.69;101262.11;106107;1287;73295;-86
2023/07/08 13:37:01;;;;;;;2.20;2.00;;;;;;;28.80;26.67;101264.79;106304;1287;67436;-86
2023/07/08 13:39:47;;;;;;;;;;;;;;;28.80;26.63;101262.97;106175;1287;71367;-86
2023/07/08 13:42:34;;;;;;;2.20;2.00;;;;;;;28.80;26.68;101264.40;105448;1287;61288;-86
2023/07/08 13:45:35;;;;;;;2.50;2.30;;;;;;;28.80;26.82;101259.11;105164;1287;62839;-86
2023/07/08 13:48:33;;;;;;;2.70;1.80;;;;;;;28.84;26.67;101257.20;105078;1287;77435;-86
2023/07/08 13:51:23;;;;;;;2.70;2.30;;;;;;;28.84;26.73;101256.14;105336;1287;69361;-86
2023/07/08 13:54:18;;;;;;;5.80;2.10;;;;;;;28.82;26.67;101256.10;106174;1287;72404;-86
2023/07/08 13:57:10;;;;;;;2.50;2.00;;;;;;;28.80;26.80;101258.03;105709;1287;59689;-86
2023/07/08 13:59:57;;;;;;;2.50;2.30;;;;;;;28.81;26.75;101254.77;105193;1287;61170;-86
2023/07/08 14:02:45;;;;;;;2.40;1.70;;;;;;;28.80;26.60;101261.40;105186;1287;74193;-85
2023/07/08 14:05:31;;;;;;;3.20;1.80;;;;;;;28.77;26.69;101257.73;105121;1287;67206;-85
2023/07/08 14:08:18;;;;;;;2.90;1.90;;;;;;;28.78;26.69;101255.58;105140;1287;74020;-86
2023/07/08 14:11:04;;;;;;;;;;;;;;;28.79;26.78;101246.95;105206;1287;59253;-86
2023/07/08 14:13:51;;;;;;;2.00;1.80;;;;;;;28.80;26.69;101245.48;105156;1287;61108;-86
2023/07/08 14:16:43;;;;;;;2.40;2.20;;;;;;;28.81;26.73;101246.76;105987;1287;73386;-86
2023/07/08 14:19:34;;;;;;;2.70;2.10;;;;;;;28.83;26.81;101249.45;105042;1287;68059;-85
2023/07/08 14:22:30;;;;;;;4.00;2.10;;;;;;;28.84;26.71;101247.60;105538;1287;71223;-85
2023/07/08 14:25:20;;;;;;;2.30;2.10;;;;;;;28.86;26.78;101242.29;105120;1287;59183;-85
2023/07/08 14:28:08;;;;;;;2.60;2.20;;;;;;;28.89;26.87;101245.42;105214;1287;60472;-85
2023/07/08 14:34:37;;;;;;;2.30;2.10;;;;;;;28.93;26.83;101235.34;105202;1291;68368;-85
2023/07/08 14:37:24;;;;;;;;;;;;;;;28.91;26.82;101233.89;105180;1287;71367;-85
2023/07/08 14:40:24;;;;;;;4.20;2.20;;;;;;;28.92;26.82;101232.23;105105;1287;59310;-85
2023/07/08 14:43:22;;;;;;;1.90;1.80;;;;;;;28.94;26.85;101228.09;105258;1287;60952;-85
2023/07/08 14:46:10;;;;;;;2.30;2.10;;;;;;;28.96;26.73;101226.37;105185;1287;73523;-85
2023/07/08 14:48:56;;;;;;;4.00;1.90;;;;;;;28.98;26.78;101222.80;105058;1287;67296;-84
2023/07/08 14:51:43;;;;;;;2.20;1.90;;;;;;;28.98;26.61;101220.67;105162;1287;71245;-84
2023/07/08 14:54:29;;;;;;;2.10;2.00;;;;;;;28.94;26.65;101220.44;105112;1287;61301;-85
2023/07/08 14:57:17;;;;;;;2.50;2.30;;;;;;;28.90;26.60;101224.02;105124;1287;61109;-85
2023/07/08 15:00:04;;;;;;;1.90;1.80;;;;;;;28.89;26.58;101220.77;105144;1287;73391;-85
2023/07/08 15:02:51;;;;;;;2.60;2.30;;;;;;;28.87;26.42;101219.45;105255;1287;67293;-84
2023/07/08 15:05:37;;;;;;;3.00;2.00;;;;;;;28.85;26.43;101211.52;105355;1290;71349;-84
2023/07/08 15:08:24;;;;;;;1.80;1.70;;;;;;;28.82;26.34;101211.21;105239;1287;61374;-84
2023/07/08 15:11:11;;;;;;;;;;;;;;;28.83;26.48;101210.09;105256;1287;61143;-84
2023/07/08 15:13:59;;;;;;;2.60;2.40;;;;;;;28.84;26.50;101212.30;105047;1287;74373;-84
2023/07/08 15:16:46;;;;;;;3.10;2.20;;;;;;;28.80;26.36;101211.69;105217;1287;67881;-84
2023/07/08 15:19:35;;;;;;;2.50;2.30;;;;;;;28.78;26.31;101213.10;105056;1287;72313;-84
2023/07/08 15:22:21;;;;;;;2.40;1.90;;;;;;;28.78;26.28;101213.30;105158;1287;60522;-84
2023/07/08 15:25:10;;;;;;;2.00;1.90;;;;;;;28.79;26.37;101215.73;105059;1293;63522;-84
2023/07/08 15:27:57;;;;;;;3.30;1.80;;;;;;;28.80;26.40;101211.38;105090;1293;73206;-84